Time;durP1;ratioP1;P1;durP2;ratioP2;P2;SDS_P1;SDS_P2;PMS_P1;PMS_P2;Temp;Humidity;BMP_temperature;BMP_pressure;BME280_temperature;BME280_humidity;BME280_pressure;Samples;Min_cycle;Max_cycle;Signal;HPM_P1;HPM_P2
2022/11/06 00:00:21;;;;;;;9.70;8.77;;;11.00;99.90;;;;;;5052615;28;20596;-73
2022/11/06 00:02:48;;;;;;;9.17;8.37;;;10.90;99.90;;;;;;5050615;28;20228;-73
2022/11/06 00:07:58;;;;;;;9.23;8.33;;;10.80;99.90;;;;;;5052556;28;20545;-73
2022/11/06 00:10:24;;;;;;;9.77;8.77;;;10.80;99.90;;;;;;5051859;28;20573;-73
2022/11/06 00:12:50;;;;;;;8.97;8.13;;;11.10;99.90;;;;;;5051625;28;20179;-73
2022/11/06 00:15:17;;;;;;;8.93;8.03;;;11.10;99.90;;;;;;5050430;28;20258;-73
2022/11/06 00:17:42;;;;;;;12.10;8.30;;;11.20;99.90;;;;;;5032035;28;20472;-72
2022/11/06 00:20:08;;;;;;;8.87;8.03;;;11.30;99.90;;;;;;5034548;28;20420;-72
2022/11/06 00:22:36;;;;;;;8.47;7.57;;;11.30;99.90;;;;;;5042312;28;20175;-72
2022/11/06 00:25:03;;;;;;;14.50;12.03;;;11.10;99.90;;;;;;5051297;28;20858;-71
2022/11/06 00:27:28;;;;;;;24.03;18.30;;;11.10;99.90;;;;;;5033144;28;20462;-72
2022/11/06 00:29:54;;;;;;;16.67;13.67;;;11.10;99.90;;;;;;5054714;28;20426;-72
2022/11/06 00:32:20;;;;;;;11.20;9.53;;;11.20;99.90;;;;;;5056353;28;20412;-72
2022/11/06 00:34:46;;;;;;;13.10;10.60;;;11.10;99.90;;;;;;5051635;28;20207;-72
2022/11/06 00:37:12;;;;;;;10.03;9.00;;;11.10;99.90;;;;;;5056272;28;20174;-72
2022/11/06 00:39:38;;;;;;;10.30;7.90;;;11.10;99.90;;;;;;5055067;28;20437;-71
2022/11/06 00:42:04;;;;;;;9.30;7.80;;;11.00;99.90;;;;;;5053536;28;20423;-72
2022/11/06 00:44:29;;;;;;;8.20;7.40;;;11.10;99.90;;;;;;5053987;28;20276;-72
2022/11/06 00:46:55;;;;;;;7.73;7.03;;;11.10;99.90;;;;;;5056122;28;20447;-72
2022/11/06 00:49:21;;;;;;;7.53;6.80;;;11.10;99.90;;;;;;5054455;28;20209;-72
2022/11/06 00:51:47;;;;;;;7.80;7.00;;;11.20;99.90;;;;;;5053277;28;20177;-71
2022/11/06 00:54:13;;;;;;;7.97;7.27;;;11.20;99.90;;;;;;5053444;28;20492;-71
2022/11/06 00:56:39;;;;;;;7.90;7.20;;;10.90;99.90;;;;;;5053925;28;20192;-72
2022/11/06 00:59:07;;;;;;;9.00;7.43;;;10.80;99.90;;;;;;5037086;28;20778;-73
2022/11/06 01:01:38;;;;;;;7.67;6.80;;;10.90;99.90;;;;;;5053180;28;20468;-72
2022/11/06 01:04:16;;;;;;;7.67;6.87;;;11.00;99.90;;;;;;5055965;28;20491;-72
2022/11/06 01:06:44;;;;;;;7.90;7.20;;;11.10;99.90;;;;;;5055175;28;20439;-72
2022/11/06 01:09:17;;;;;;;6.80;6.10;;;11.20;99.90;;;;;;5055708;28;20519;-72
2022/11/06 01:11:45;;;;;;;6.77;6.17;;;11.20;99.90;;;;;;5053829;28;20451;-72
2022/11/06 01:14:13;;;;;;;9.17;6.40;;;11.20;99.90;;;;;;5052893;28;20430;-72
2022/11/06 01:16:39;;;;;;;8.03;5.67;;;11.30;99.90;;;;;;5053075;28;20488;-72
2022/11/06 01:19:06;;;;;;;6.90;6.20;;;11.40;99.90;;;;;;5054617;28;20809;-72
2022/11/06 01:21:34;;;;;;;10.33;6.00;;;11.50;99.90;;;;;;5051717;28;20430;-72
2022/11/06 01:24:07;;;;;;;6.93;6.17;;;11.60;99.90;;;;;;5034963;28;20482;-72
2022/11/06 01:26:33;;;;;;;7.20;5.70;;;11.80;99.90;;;;;;5054801;28;20795;-72
2022/11/06 01:28:59;;;;;;;6.40;5.83;;;11.80;99.90;;;;;;5037650;28;20460;-72
2022/11/06 01:31:27;;;;;;;6.57;5.50;;;11.70;99.90;;;;;;5053921;28;20440;-72
2022/11/06 01:33:54;;;;;;;6.00;5.13;;;11.70;99.90;;;;;;5053637;28;20435;-72
2022/11/06 01:36:21;;;;;;;7.10;5.67;;;11.60;99.90;;;;;;5055459;28;20461;-72
2022/11/06 01:38:49;;;;;;;5.97;5.40;;;11.70;99.90;;;;;;5054619;28;20468;-72
2022/11/06 01:41:21;;;;;;;6.67;5.37;;;11.50;99.90;;;;;;5053005;28;20464;-72
2022/11/06 01:43:55;;;;;;;5.40;5.00;;;11.60;99.90;;;;;;5053349;28;20828;-72
2022/11/06 01:46:24;;;;;;;5.80;5.20;;;11.70;99.90;;;;;;5055321;28;20503;-71
2022/11/06 01:48:57;;;;;;;8.73;5.07;;;11.60;99.90;;;;;;5035708;28;20428;-72
2022/11/06 01:51:27;;;;;;;6.27;5.67;;;11.60;99.90;;;;;;5052339;28;20428;-71
2022/11/06 01:53:53;;;;;;;6.50;5.17;;;11.80;99.90;;;;;;5052825;28;20508;-72
2022/11/06 01:56:21;;;;;;;6.80;5.27;;;11.70;99.90;;;;;;5037046;28;20771;-72
2022/11/06 01:58:49;;;;;;;6.50;5.90;;;11.60;99.90;;;;;;5054155;28;20772;-72
2022/11/06 02:01:17;;;;;;;5.63;5.23;;;11.70;99.90;;;;;;5052469;28;20781;-72
2022/11/06 02:04:13;;;;;;;8.20;5.53;;;11.70;99.90;;;;;;5052249;28;20437;-71
2022/11/06 02:06:38;;;;;;;5.93;4.90;;;11.60;99.90;;;;;;5036326;28;20839;-72
2022/11/06 02:09:10;;;;;;;7.33;5.47;;;11.60;99.90;;;;;;5052447;28;20506;-72
2022/11/06 02:11:41;;;;;;;6.33;5.70;;;11.60;99.90;;;;;;5051429;28;20523;-72
2022/11/06 02:14:18;;;;;;;5.70;5.30;;;11.50;99.90;;;;;;5054727;28;20809;-72
2022/11/06 02:16:51;;;;;;;5.50;5.00;;;11.40;99.90;;;;;;5053604;28;20404;-72
2022/11/06 02:19:23;;;;;;;5.90;5.40;;;11.40;99.90;;;;;;5054496;28;20483;-71
2022/11/06 02:22:32;;;;;;;5.90;5.40;;;11.30;99.90;;;;;;5035006;28;20477;-72
2022/11/06 02:25:16;;;;;;;5.60;5.10;;;11.40;99.90;;;;;;5054167;28;20911;-72
2022/11/06 02:28:02;;;;;;;5.70;5.00;;;11.40;99.90;;;;;;5052987;28;20518;-72
2022/11/06 02:30:32;;;;;;;5.70;5.20;;;11.50;99.90;;;;;;5052874;28;20450;-72
2022/11/06 02:33:03;;;;;;;5.33;4.93;;;11.50;99.90;;;;;;5019317;28;20435;-72
2022/11/06 02:35:40;;;;;;;5.23;4.60;;;11.50;99.90;;;;;;5052949;28;20425;-72
2022/11/06 02:38:13;;;;;;;5.13;4.63;;;11.60;99.90;;;;;;5052966;28;20399;-73
2022/11/06 02:40:45;;;;;;;6.10;4.83;;;11.70;99.90;;;;;;5036803;28;20482;-72
2022/11/06 02:43:15;;;;;;;5.90;5.30;;;11.80;99.90;;;;;;5053413;28;20403;-72
2022/11/06 02:45:52;;;;;;;5.43;4.97;;;11.70;99.90;;;;;;5052996;28;20404;-72
2022/11/06 02:48:23;;;;;;;5.67;5.17;;;11.80;99.90;;;;;;5053850;28;20459;-71
2022/11/06 02:50:51;;;;;;;5.30;4.90;;;11.60;99.90;;;;;;5051801;28;20437;-72
2022/11/06 02:53:21;;;;;;;5.90;5.30;;;11.50;99.90;;;;;;5052833;28;20862;-71
2022/11/06 02:55:51;;;;;;;7.73;7.00;;;11.60;99.90;;;;;;5035292;28;21072;-72
2022/11/06 02:58:21;;;;;;;7.83;6.60;;;11.70;99.90;;;;;;5051879;28;20497;-71
2022/11/06 03:00:53;;;;;;;8.27;7.10;;;11.90;99.90;;;;;;5051886;28;20449;-72
2022/11/06 03:03:25;;;;;;;8.70;6.13;;;11.90;99.90;;;;;;5001979;28;20776;-72
2022/11/06 03:06:03;;;;;;;9.20;5.03;;;11.90;99.90;;;;;;5052944;28;20442;-71
2022/11/06 03:08:39;;;;;;;6.33;5.27;;;12.00;99.90;;;;;;5034759;28;20450;-72
2022/11/06 03:11:21;;;;;;;6.50;4.87;;;12.00;99.90;;;;;;5053710;28;20479;-72
2022/11/06 03:14:08;;;;;;;7.93;4.80;;;11.90;99.90;;;;;;5052771;28;20403;-72
2022/11/06 03:16:59;;;;;;;5.97;5.03;;;11.70;99.90;;;;;;5053157;28;20425;-72
2022/11/06 03:19:43;;;;;;;5.23;4.73;;;11.80;99.90;;;;;;5052362;28;20522;-72
2022/11/06 03:22:14;;;;;;;4.80;4.40;;;11.70;99.90;;;;;;5053207;28;20472;-72
2022/11/06 03:24:43;;;;;;;5.63;4.53;;;11.70;99.90;;;;;;5052318;28;20822;-72
2022/11/06 03:27:21;;;;;;;5.57;4.80;;;11.70;99.90;;;;;;5052143;28;20459;-72
2022/11/06 03:30:13;;;;;;;7.63;4.67;;;11.70;99.90;;;;;;5032824;28;20409;-72
2022/11/06 03:33:02;;;;;;;4.70;4.30;;;11.50;99.90;;;;;;5029538;28;20494;-73
2022/11/06 03:35:55;;;;;;;5.57;5.07;;;11.40;99.90;;;;;;5046607;28;20814;-72
2022/11/06 03:38:28;;;;;;;5.43;4.93;;;11.30;99.90;;;;;;5041809;28;20444;-72
2022/11/06 03:41:03;;;;;;;6.60;5.23;;;11.20;99.90;;;;;;5052179;28;20421;-72
2022/11/06 03:43:34;;;;;;;5.53;5.00;;;11.20;99.90;;;;;;5052950;28;20407;-71
2022/11/06 03:46:04;;;;;;;5.40;4.80;;;10.90;99.90;;;;;;5052658;28;20395;-72
2022/11/06 03:48:35;;;;;;;4.90;4.50;;;10.90;99.90;;;;;;5051502;28;20837;-72
2022/11/06 03:51:17;;;;;;;4.93;4.53;;;10.90;99.90;;;;;;5051872;28;20903;-72
2022/11/06 03:53:51;;;;;;;5.30;4.80;;;10.90;99.90;;;;;;5051126;28;20424;-72
2022/11/06 03:56:45;;;;;;;5.83;4.70;;;10.90;99.90;;;;;;5052801;28;20580;-72
2022/11/06 03:59:14;;;;;;;8.27;4.90;;;11.00;99.90;;;;;;5051335;28;20450;-72
2022/11/06 04:01:45;;;;;;;5.13;4.63;;;10.90;99.90;;;;;;5051653;28;20458;-73
2022/11/06 04:04:18;;;;;;;5.50;5.00;;;10.90;99.90;;;;;;5052340;28;20433;-71
2022/11/06 04:07:07;;;;;;;9.27;5.30;;;10.90;99.90;;;;;;5000426;28;20841;-72
2022/11/06 04:15:15;;;;;;;6.17;4.80;;;10.80;99.90;;;;;;5052535;28;20392;-72
2022/11/06 04:17:41;;;;;;;4.50;4.20;;;10.90;99.90;;;;;;5031927;28;20440;-73
2022/11/06 04:21:20;;;;;;;5.27;4.87;;;11.00;99.90;;;;;;5052739;28;20407;-72
2022/11/06 04:23:25;;;;;;;4.53;4.23;;;10.90;99.90;;;;;;5050655;28;20200;-72
2022/11/06 04:26:36;;;;;;;4.77;3.87;;;10.90;99.90;;;;;;5050886;28;20421;-72
2022/11/06 04:29:14;;;;;;;4.90;4.40;;;10.90;99.90;;;;;;5050434;28;20449;-71
2022/11/06 04:32:02;;;;;;;8.33;4.40;;;11.10;99.90;;;;;;5051968;28;20430;-72
2022/11/06 04:34:45;;;;;;;7.10;4.60;;;11.10;99.90;;;;;;5052117;28;20397;-72
2022/11/06 04:37:23;;;;;;;4.63;4.23;;;11.10;99.90;;;;;;5052390;28;20403;-72
2022/11/06 04:40:20;;;;;;;4.70;4.33;;;11.10;99.90;;;;;;5051314;28;20452;-72
2022/11/06 04:42:53;;;;;;;5.83;4.30;;;10.90;99.90;;;;;;4996889;28;20503;-72
2022/11/06 04:45:36;;;;;;;4.93;4.37;;;10.80;99.90;;;;;;5052147;28;20420;-71
2022/11/06 04:48:04;;;;;;;4.63;4.23;;;10.70;99.90;;;;;;5050672;28;20466;-72
2022/11/06 04:50:35;;;;;;;4.43;4.13;;;10.60;99.90;;;;;;5051146;28;20421;-72
2022/11/06 04:53:03;;;;;;;4.90;4.40;;;10.60;99.90;;;;;;5051302;28;20403;-72
2022/11/06 04:55:30;;;;;;;8.90;4.60;;;10.40;99.90;;;;;;5051974;28;20903;-72
2022/11/06 04:57:55;;;;;;;6.43;4.57;;;10.40;99.90;;;;;;5049764;28;20448;-72
2022/11/06 05:00:21;;;;;;;4.63;4.33;;;10.40;99.90;;;;;;5052110;28;20409;-72
2022/11/06 05:02:47;;;;;;;4.60;4.20;;;10.30;99.90;;;;;;5051596;28;20661;-72
2022/11/06 05:05:12;;;;;;;4.83;4.43;;;10.40;99.90;;;;;;5052247;28;20174;-72
2022/11/06 05:07:38;;;;;;;4.50;4.10;;;10.40;99.90;;;;;;5049781;28;20205;-72
2022/11/06 05:10:04;;;;;;;5.50;5.10;;;10.60;99.90;;;;;;5033705;28;20537;-71
2022/11/06 05:12:30;;;;;;;5.57;4.93;;;10.60;99.90;;;;;;5050942;28;20180;-72
2022/11/06 05:14:55;;;;;;;5.83;4.00;;;10.60;99.90;;;;;;5017113;28;20420;-72
2022/11/06 05:17:21;;;;;;;5.23;4.30;;;10.50;99.90;;;;;;5053786;28;20182;-71
2022/11/06 05:19:47;;;;;;;4.30;3.90;;;10.60;99.90;;;;;;5053537;28;20525;-72
2022/11/06 05:24:56;;;;;;;4.57;3.40;;;10.60;99.90;;;;;;5054937;28;20210;-71
2022/11/06 05:27:22;;;;;;;4.23;3.93;;;10.50;99.90;;;;;;5055415;28;20834;-71
2022/11/06 05:29:48;;;;;;;5.10;4.60;;;10.50;99.90;;;;;;5053235;28;20178;-72
2022/11/06 05:32:13;;;;;;;6.77;4.33;;;10.60;99.90;;;;;;5037405;28;20281;-72
2022/11/06 05:34:41;;;;;;;4.40;4.00;;;10.50;99.90;;;;;;5055540;28;20600;-71
2022/11/06 05:37:06;;;;;;;4.13;3.70;;;10.20;99.90;;;;;;5054542;28;20232;-71
2022/11/06 05:39:32;;;;;;;5.90;4.00;;;10.20;99.90;;;;;;5053598;28;20907;-71
2022/11/06 05:41:58;;;;;;;4.90;4.10;;;10.20;99.90;;;;;;5054315;28;20176;-72
2022/11/06 05:44:23;;;;;;;4.20;3.80;;;10.20;99.90;;;;;;5052039;28;20635;-72
2022/11/06 05:46:49;;;;;;;4.10;3.70;;;10.30;99.90;;;;;;5054041;28;20573;-72
2022/11/06 05:49:16;;;;;;;3.83;3.50;;;10.30;99.90;;;;;;5054135;28;20181;-72
2022/11/06 05:51:42;;;;;;;4.23;3.83;;;10.20;99.90;;;;;;5054935;28;20634;-72
2022/11/06 05:54:07;;;;;;;4.07;3.67;;;10.20;99.90;;;;;;5054290;28;20417;-72
2022/11/06 05:56:33;;;;;;;5.53;3.70;;;10.30;99.90;;;;;;5045077;28;20443;-72
2022/11/06 05:58:59;;;;;;;4.17;3.77;;;10.20;99.90;;;;;;5051038;28;20676;-72
2022/11/06 06:01:24;;;;;;;5.43;3.90;;;10.20;99.90;;;;;;5054264;28;20214;-71
2022/11/06 06:03:50;;;;;;;5.37;3.77;;;10.20;99.90;;;;;;5053814;28;20620;-72
2022/11/06 06:06:16;;;;;;;3.70;3.40;;;10.10;99.90;;;;;;5053279;28;20191;-71
2022/11/06 06:08:42;;;;;;;6.20;4.20;;;10.00;99.90;;;;;;5054633;28;20178;-72
2022/11/06 06:11:07;;;;;;;4.87;4.30;;;9.80;99.90;;;;;;5053911;28;20751;-72
2022/11/06 06:13:36;;;;;;;4.50;4.10;;;9.80;99.90;;;;;;5054537;28;20169;-71
2022/11/06 06:16:02;;;;;;;6.33;3.97;;;9.80;99.90;;;;;;5052245;28;20264;-72
2022/11/06 06:18:28;;;;;;;4.90;3.80;;;9.90;99.90;;;;;;5053837;28;20420;-71
2022/11/06 06:20:55;;;;;;;6.53;3.80;;;9.90;99.90;;;;;;5051146;28;20431;-72
2022/11/06 06:23:21;;;;;;;4.70;4.30;;;9.90;99.90;;;;;;5053232;28;20190;-72
2022/11/06 06:25:47;;;;;;;5.97;4.77;;;9.80;99.90;;;;;;5051439;28;20439;-71
2022/11/06 06:28:13;;;;;;;4.90;4.50;;;9.80;99.90;;;;;;5053674;28;20288;-71
2022/11/06 06:30:39;;;;;;;6.47;4.70;;;9.70;99.90;;;;;;5054363;28;20504;-72
2022/11/06 06:33:05;;;;;;;6.70;4.83;;;9.70;99.90;;;;;;5052856;28;20228;-72
2022/11/06 06:35:32;;;;;;;5.23;4.73;;;9.70;99.90;;;;;;5052397;28;20622;-71
2022/11/06 06:37:58;;;;;;;5.43;3.80;;;9.70;99.90;;;;;;5046253;28;20780;-72
2022/11/06 06:40:25;;;;;;;4.43;4.03;;;9.70;99.90;;;;;;5034103;28;20403;-72
2022/11/06 06:42:54;;;;;;;5.43;4.33;;;9.80;99.90;;;;;;5047846;28;20438;-72
2022/11/06 06:45:19;;;;;;;4.50;4.10;;;9.80;99.90;;;;;;5051596;28;20429;-72
2022/11/06 06:47:45;;;;;;;3.97;3.67;;;9.80;99.90;;;;;;5046739;28;20427;-72
2022/11/06 06:50:11;;;;;;;4.30;3.83;;;9.90;99.90;;;;;;5032750;28;20171;-72
2022/11/06 06:52:37;;;;;;;4.33;4.00;;;9.80;99.90;;;;;;5045197;28;20261;-71
2022/11/06 06:55:03;;;;;;;4.80;4.00;;;9.80;99.90;;;;;;5052993;28;20641;-72
2022/11/06 06:57:29;;;;;;;13.80;8.90;;;9.70;99.90;;;;;;5053455;28;20169;-71
2022/11/06 06:59:54;;;;;;;5.60;5.10;;;9.70;99.90;;;;;;5018760;28;20752;-72
2022/11/06 07:02:20;;;;;;;10.73;6.33;;;9.70;99.90;;;;;;5051498;28;20210;-72
2022/11/06 07:04:46;;;;;;;3.70;3.50;;;9.60;99.90;;;;;;5053528;28;20185;-72
2022/11/06 07:07:12;;;;;;;3.90;3.70;;;9.70;99.90;;;;;;5052592;28;20598;-72
2022/11/06 07:09:37;;;;;;;4.10;3.70;;;9.90;99.90;;;;;;5053578;28;20522;-72
2022/11/06 07:12:03;;;;;;;3.53;3.33;;;9.80;99.90;;;;;;5034015;28;20516;-72
2022/11/06 07:14:29;;;;;;;6.70;3.80;;;9.90;99.90;;;;;;5053275;28;20512;-72
2022/11/06 07:16:55;;;;;;;4.90;4.33;;;10.00;99.90;;;;;;5032336;28;20455;-72
2022/11/06 07:19:21;;;;;;;4.87;4.40;;;10.00;99.90;;;;;;5053295;28;20208;-72
2022/11/06 07:21:50;;;;;;;4.37;3.97;;;10.00;99.90;;;;;;5045900;28;20775;-72
2022/11/06 07:24:17;;;;;;;3.90;3.60;;;9.90;99.90;;;;;;5051084;28;20344;-72
2022/11/06 07:26:42;;;;;;;4.27;3.90;;;10.10;99.90;;;;;;5049284;28;20460;-75
2022/11/06 07:29:08;;;;;;;3.30;3.10;;;10.10;99.90;;;;;;5020278;28;20852;-68
2022/11/06 07:31:34;;;;;;;6.00;3.77;;;10.20;99.90;;;;;;5021888;28;20175;-68
2022/11/06 07:33:59;;;;;;;4.03;3.73;;;10.40;99.90;;;;;;5021984;28;20258;-68
2022/11/06 07:36:25;;;;;;;4.77;3.77;;;10.40;99.90;;;;;;5042425;28;20169;-68
2022/11/06 07:38:51;;;;;;;4.63;3.93;;;10.30;99.90;;;;;;5041207;28;20171;-68
2022/11/06 07:41:16;;;;;;;3.43;3.10;;;10.30;99.90;;;;;;5040410;28;20212;-68
2022/11/06 07:43:43;;;;;;;3.87;3.57;;;10.40;99.90;;;;;;5024214;28;20185;-68
2022/11/06 07:46:10;;;;;;;4.83;4.47;;;10.50;99.90;;;;;;5040401;28;20173;-68
2022/11/06 07:48:36;;;;;;;3.90;3.60;;;10.70;99.90;;;;;;5040604;28;20909;-68
2022/11/06 07:51:04;;;;;;;4.13;3.77;;;10.80;99.90;;;;;;5041906;28;20410;-69
2022/11/06 07:53:33;;;;;;;6.97;5.07;;;10.80;99.90;;;;;;5040548;28;20770;-68
2022/11/06 07:55:59;;;;;;;4.07;3.77;;;10.80;99.90;;;;;;5042157;28;20798;-69
2022/11/06 07:58:25;;;;;;;5.43;4.93;;;10.90;99.90;;;;;;5041304;28;20467;-68
2022/11/06 08:00:53;;;;;;;4.10;3.70;;;10.60;99.90;;;;;;5041090;28;20414;-70
2022/11/06 08:03:19;;;;;;;4.40;3.90;;;10.70;99.90;;;;;;5027215;28;20520;-68
2022/11/06 08:05:46;;;;;;;4.00;3.70;;;10.80;99.90;;;;;;5024096;28;20813;-68
2022/11/06 08:08:12;;;;;;;4.37;3.40;;;10.70;99.90;;;;;;5040530;28;20451;-68
2022/11/06 08:10:42;;;;;;;3.80;3.50;;;10.80;99.90;;;;;;5040176;28;20822;-70
2022/11/06 08:13:13;;;;;;;5.07;4.67;;;10.90;99.90;;;;;;5044122;28;20787;-69
2022/11/06 08:15:39;;;;;;;4.97;4.67;;;11.00;99.90;;;;;;5041298;28;20432;-69
2022/11/06 08:18:07;;;;;;;7.43;4.70;;;10.90;99.90;;;;;;5041526;28;20754;-70
2022/11/06 08:20:33;;;;;;;5.43;4.57;;;10.90;99.90;;;;;;5043406;28;20412;-69
2022/11/06 08:23:04;;;;;;;17.53;11.50;;;11.00;99.90;;;;;;5039069;28;20446;-70
2022/11/06 08:25:31;;;;;;;7.00;4.00;;;11.10;99.90;;;;;;5023461;28;20447;-69
2022/11/06 08:27:59;;;;;;;4.57;3.30;;;11.00;99.90;;;;;;5037928;28;20463;-69
2022/11/06 08:30:26;;;;;;;4.80;4.00;;;11.20;99.90;;;;;;5037714;28;20973;-69
2022/11/06 08:32:52;;;;;;;4.20;3.90;;;11.20;99.90;;;;;;5040398;28;20423;-71
2022/11/06 08:35:18;;;;;;;4.30;3.50;;;11.20;99.90;;;;;;5038611;28;20441;-70
2022/11/06 08:37:45;;;;;;;5.83;3.40;;;11.30;99.90;;;;;;5041625;28;20416;-70
2022/11/06 08:40:11;;;;;;;4.63;3.37;;;11.40;99.90;;;;;;5040396;28;20419;-70
2022/11/06 08:42:36;;;;;;;3.57;2.80;;;11.40;99.90;;;;;;5022376;28;20981;-70
2022/11/06 08:45:03;;;;;;;6.70;3.50;;;11.60;99.90;;;;;;5040371;28;20524;-68
2022/11/06 08:47:29;;;;;;;6.20;3.47;;;11.50;99.90;;;;;;5042275;28;20722;-69
2022/11/06 08:49:54;;;;;;;3.57;3.13;;;11.50;99.90;;;;;;5050542;28;20431;-70
2022/11/06 08:52:20;;;;;;;4.03;3.70;;;11.50;99.90;;;;;;5053790;28;20171;-70
2022/11/06 08:54:46;;;;;;;4.50;3.50;;;11.70;99.90;;;;;;5053739;28;20180;-70
2022/11/06 08:57:12;;;;;;;3.63;3.20;;;11.60;99.90;;;;;;5055479;28;20779;-70
2022/11/06 08:59:38;;;;;;;4.83;3.60;;;12.00;99.90;;;;;;5055854;28;20175;-70
2022/11/06 09:02:03;;;;;;;3.97;3.33;;;12.60;99.90;;;;;;5054441;28;20559;-70
2022/11/06 09:04:29;;;;;;;3.70;3.40;;;12.90;99.90;;;;;;5054254;28;20212;-70
2022/11/06 09:06:57;;;;;;;4.57;3.60;;;13.40;99.90;;;;;;5054997;28;20199;-71
2022/11/06 09:09:30;;;;;;;3.30;3.03;;;13.60;99.90;;;;;;5055905;28;20307;-69
2022/11/06 09:11:57;;;;;;;3.73;3.43;;;14.00;99.90;;;;;;4993383;28;20944;-70
2022/11/06 09:14:23;;;;;;;4.63;3.37;;;14.30;99.20;;;;;;4993345;28;20771;-68
2022/11/06 09:16:49;;;;;;;3.97;3.67;;;14.00;99.30;;;;;;4992039;28;20807;-69
2022/11/06 09:19:15;;;;;;;3.90;3.60;;;14.20;99.90;;;;;;4982780;28;20431;-71
2022/11/06 09:21:41;;;;;;;5.83;3.57;;;14.40;98.90;;;;;;4958286;28;20265;-69
2022/11/06 09:24:07;;;;;;;4.83;3.43;;;14.70;98.60;;;;;;4979770;28;20191;-69
2022/11/06 09:26:32;;;;;;;4.23;3.93;;;14.80;97.50;;;;;;4982454;28;20198;-68
2022/11/06 09:28:58;;;;;;;4.07;3.87;;;14.40;97.60;;;;;;4981367;28;20847;-69
2022/11/06 09:31:24;;;;;;;4.50;4.10;;;14.30;98.90;;;;;;4981730;28;20439;-69
2022/11/06 09:33:50;;;;;;;4.40;3.73;;;14.40;98.70;;;;;;4964508;28;20188;-68
2022/11/06 09:36:16;;;;;;;4.20;3.90;;;14.70;98.90;;;;;;4980479;28;20187;-69
2022/11/06 09:38:42;;;;;;;4.87;4.43;;;14.90;98.00;;;;;;4980899;28;21618;-69
2022/11/06 09:41:28;;;;;;;4.53;4.13;;;15.00;97.50;;;;;;4982860;28;20901;-69
2022/11/06 09:44:09;;;;;;;7.13;4.80;;;14.60;98.60;;;;;;5040594;28;20626;-70
2022/11/06 09:46:43;;;;;;;6.73;3.90;;;14.60;98.70;;;;;;5047182;28;20958;-69
2022/11/06 09:49:18;;;;;;;4.67;3.67;;;14.80;98.10;;;;;;5040750;28;20885;-68
2022/11/06 09:52:07;;;;;;;4.17;3.70;;;14.90;97.60;;;;;;5043396;28;20411;-69
2022/11/06 09:54:41;;;;;;;4.93;4.30;;;14.80;97.70;;;;;;5009196;28;20831;-69
2022/11/06 09:57:31;;;;;;;4.50;4.10;;;14.90;98.00;;;;;;5041811;28;20437;-69
2022/11/06 09:59:59;;;;;;;26.00;5.17;;;15.00;97.20;;;;;;5043627;28;20415;-69
2022/11/06 10:02:43;;;;;;;5.33;4.60;;;15.00;97.00;;;;;;5044513;28;20476;-69
2022/11/06 10:05:17;;;;;;;4.20;3.90;;;15.10;97.60;;;;;;5025416;28;20852;-69
2022/11/06 10:07:44;;;;;;;4.37;4.07;;;15.10;96.80;;;;;;5042824;28;20769;-68
2022/11/06 10:10:41;;;;;;;4.03;3.73;;;14.70;97.50;;;;;;5043106;28;20403;-69
2022/11/06 10:13:49;;;;;;;46.27;28.00;;;14.90;98.60;;;;;;5032142;28;20408;-68
2022/11/06 10:16:52;;;;;;;27.57;23.47;;;15.10;97.30;;;;;;5032526;28;20489;-68
2022/11/06 10:19:39;;;;;;;153.73;116.03;;;15.10;97.40;;;;;;5048694;28;20432;-68
2022/11/06 10:22:08;;;;;;;5.27;4.97;;;15.00;97.80;;;;;;5033915;28;20467;-69
2022/11/06 10:24:43;;;;;;;3.70;3.43;;;15.10;96.50;;;;;;5039611;28;20435;-68
2022/11/06 10:27:15;;;;;;;4.10;3.80;;;14.90;96.70;;;;;;5053388;28;20461;-69
2022/11/06 10:30:08;;;;;;;3.90;3.60;;;15.00;96.70;;;;;;5053497;28;20428;-68
2022/11/06 10:33:08;;;;;;;4.63;4.23;;;14.90;96.60;;;;;;5053916;28;20448;-69
2022/11/06 10:35:42;;;;;;;4.90;4.20;;;14.90;97.40;;;;;;5019722;28;20898;-69
2022/11/06 10:38:34;;;;;;;5.00;4.00;;;14.90;97.60;;;;;;5034547;28;20422;-68
2022/11/06 10:41:00;;;;;;;7.20;4.20;;;15.10;97.50;;;;;;5048345;28;20823;-68
2022/11/06 10:43:46;;;;;;;57.63;51.23;;;15.20;97.10;;;;;;5053506;28;20460;-68
2022/11/06 10:46:53;;;;;;;8.43;7.63;;;15.00;97.00;;;;;;5049936;28;20439;-68
2022/11/06 10:49:34;;;;;;;402.50;255.20;;;15.00;97.50;;;;;;5047489;28;20551;-69
2022/11/06 10:52:20;;;;;;;26.23;20.57;;;15.30;96.60;;;;;;5052605;28;20416;-69
2022/11/06 10:55:38;;;;;;;4.50;4.07;;;15.50;96.00;;;;;;5052516;28;20845;-69
2022/11/06 10:58:07;;;;;;;4.60;4.30;;;15.30;95.10;;;;;;5034475;28;20841;-68
2022/11/06 11:00:33;;;;;;;6.10;5.60;;;15.40;95.20;;;;;;5049618;28;20445;-68
2022/11/06 11:03:02;;;;;;;5.43;3.90;;;15.60;94.50;;;;;;5052511;28;20953;-68
2022/11/06 11:05:46;;;;;;;4.67;4.27;;;15.50;93.10;;;;;;4985607;28;20434;-68
2022/11/06 11:08:31;;;;;;;8.00;4.17;;;15.30;93.90;;;;;;4955004;28;20466;-68
2022/11/06 11:11:05;;;;;;;4.10;3.80;;;15.40;93.90;;;;;;4974295;28;20423;-68
2022/11/06 11:13:32;;;;;;;4.90;4.40;;;15.50;94.30;;;;;;4988957;28;20451;-68
2022/11/06 11:15:58;;;;;;;4.53;4.10;;;15.60;93.70;;;;;;4990340;28;20435;-69
2022/11/06 11:18:30;;;;;;;4.77;4.37;;;15.40;93.50;;;;;;4991701;28;20519;-67
2022/11/06 11:21:23;;;;;;;5.37;4.90;;;15.30;93.30;;;;;;4991871;28;20506;-67
2022/11/06 11:24:10;;;;;;;5.07;4.50;;;15.10;94.00;;;;;;4988730;28;20513;-68
2022/11/06 11:26:43;;;;;;;5.80;5.30;;;15.00;94.30;;;;;;4980813;28;20440;-68
2022/11/06 11:29:23;;;;;;;4.93;4.53;;;14.70;94.50;;;;;;4988838;28;20415;-67
2022/11/06 11:32:11;;;;;;;4.87;4.47;;;14.30;95.00;;;;;;4991326;28;20854;-68
2022/11/06 11:34:47;;;;;;;5.00;4.07;;;14.40;96.30;;;;;;4988956;28;20432;-67
2022/11/06 11:37:27;;;;;;;4.90;4.50;;;14.60;96.00;;;;;;5033655;28;20436;-68
2022/11/06 11:39:53;;;;;;;4.13;3.83;;;14.70;95.30;;;;;;5052603;28;20740;-68
2022/11/06 11:42:30;;;;;;;4.90;4.47;;;14.60;95.20;;;;;;5051986;28;20418;-68
2022/11/06 11:45:08;;;;;;;4.70;4.10;;;14.80;95.50;;;;;;5033708;28;20447;-67
2022/11/06 11:47:39;;;;;;;4.57;4.27;;;14.80;94.90;;;;;;5050571;28;20464;-67
2022/11/06 11:50:26;;;;;;;5.57;4.73;;;14.40;94.70;;;;;;5052240;28;20439;-67
2022/11/06 11:52:57;;;;;;;4.63;4.23;;;14.50;95.40;;;;;;5052447;28;20916;-67
2022/11/06 11:55:27;;;;;;;5.70;4.50;;;14.60;95.20;;;;;;5051886;28;20868;-67
2022/11/06 11:57:58;;;;;;;4.70;4.30;;;14.60;94.80;;;;;;5051835;28;20427;-67
2022/11/06 12:00:25;;;;;;;5.07;4.70;;;14.30;94.90;;;;;;5052414;28;20444;-67
2022/11/06 12:03:04;;;;;;;4.50;4.20;;;14.30;94.90;;;;;;5052868;28;20452;-67
2022/11/06 12:05:37;;;;;;;5.80;4.70;;;14.40;94.90;;;;;;5052787;28;20396;-67
2022/11/06 12:08:03;;;;;;;4.80;4.30;;;14.30;95.00;;;;;;5051920;28;20436;-67
2022/11/06 12:10:38;;;;;;;4.30;4.00;;;14.30;94.70;;;;;;5051445;28;20429;-67
2022/11/06 12:13:22;;;;;;;4.37;4.07;;;14.40;94.20;;;;;;5034139;28;20419;-67
2022/11/06 12:15:59;;;;;;;4.83;4.50;;;14.30;94.50;;;;;;5052636;28;20392;-67
2022/11/06 12:18:34;;;;;;;4.63;4.27;;;14.20;93.80;;;;;;5052016;28;20410;-67
2022/11/06 12:21:15;;;;;;;4.33;4.03;;;14.20;93.90;;;;;;5052487;28;20399;-67
2022/11/06 12:23:46;;;;;;;4.20;3.80;;;13.90;94.40;;;;;;5049750;28;20829;-67
2022/11/06 12:26:32;;;;;;;4.70;4.40;;;13.90;94.60;;;;;;5054969;28;20788;-67
2022/11/06 12:29:13;;;;;;;4.40;4.10;;;14.10;94.60;;;;;;5056570;28;20457;-67
2022/11/06 12:31:45;;;;;;;4.87;4.57;;;14.20;94.40;;;;;;5036428;28;20431;-67
2022/11/06 12:34:22;;;;;;;5.43;4.90;;;14.30;94.60;;;;;;5054289;28;20432;-66
2022/11/06 12:37:16;;;;;;;5.40;4.90;;;14.30;94.10;;;;;;5048977;28;20439;-67
2022/11/06 12:39:51;;;;;;;5.63;5.17;;;14.40;94.00;;;;;;5033406;28;20458;-67
2022/11/06 12:42:19;;;;;;;4.60;4.23;;;14.30;93.70;;;;;;5051673;28;20392;-67
2022/11/06 12:44:46;;;;;;;4.80;4.40;;;14.10;94.00;;;;;;5034573;28;20427;-67
2022/11/06 12:47:41;;;;;;;4.53;4.10;;;14.20;94.20;;;;;;5050555;28;20458;-67
2022/11/06 12:50:25;;;;;;;6.10;3.90;;;14.20;94.20;;;;;;5039808;28;20984;-67
2022/11/06 12:53:18;;;;;;;4.53;4.03;;;13.80;93.90;;;;;;5049325;28;20489;-68
2022/11/06 12:56:28;;;;;;;28.57;25.20;;;13.80;94.80;;;;;;5051911;28;20407;-69
2022/11/06 12:59:08;;;;;;;47.27;32.13;;;14.00;95.10;;;;;;4955399;28;20566;-68
2022/11/06 13:01:51;;;;;;;11.23;10.13;;;14.10;94.60;;;;;;4968753;28;20458;-68
2022/11/06 13:04:41;;;;;;;5.23;4.90;;;14.10;94.10;;;;;;5037171;28;20448;-68
2022/11/06 13:07:24;;;;;;;376.23;238.73;;;13.80;93.90;;;;;;5061316;28;20932;-69
2022/11/06 13:09:57;;;;;;;6.53;5.93;;;14.00;95.00;;;;;;5058706;28;20414;-69
2022/11/06 13:12:38;;;;;;;4.30;4.10;;;13.80;94.20;;;;;;5059483;28;20714;-69
2022/11/06 13:15:06;;;;;;;5.00;4.60;;;13.90;94.40;;;;;;5062058;28;20431;-74
2022/11/06 13:17:36;;;;;;;5.30;4.80;;;14.20;99.90;;;;;;5062914;28;20511;-70
2022/11/06 13:20:18;;;;;;;4.37;3.97;;;14.90;99.90;;;;;;5058849;28;20419;-68
2022/11/06 13:22:55;;;;;;;3.83;3.60;;;15.40;98.20;;;;;;5058998;28;20444;-69